createdAt,value
2023-01-05T00:00:27.057Z,4.3
2023-01-05T00:05:25.322Z,4.4
2023-01-05T00:10:23.802Z,4.4
2023-01-05T00:15:21.955Z,4.5
2023-01-05T00:20:20.241Z,4.5
2023-01-05T00:25:18.569Z,4.5
2023-01-05T00:30:16.842Z,4.5
2023-01-05T00:35:15.076Z,4.6
2023-01-05T00:40:13.459Z,4.6
2023-01-05T00:45:11.761Z,4.6
2023-01-05T00:50:10.239Z,4.6
2023-01-05T00:55:08.829Z,4.6
2023-01-05T01:00:07.133Z,4.5
2023-01-05T01:05:05.350Z,4.4
2023-01-05T01:10:03.863Z,4.4
2023-01-05T01:15:02.057Z,4.4
2023-01-05T01:20:00.588Z,4.3
2023-01-05T01:24:59.389Z,4.3
2023-01-05T01:29:57.556Z,4.3
2023-01-05T01:34:55.923Z,4.2
2023-01-05T01:39:54.336Z,4.2
2023-01-05T01:44:52.554Z,4.1
2023-01-05T01:49:50.628Z,4.1
2023-01-05T01:54:48.912Z,4.1
2023-01-05T01:59:47.118Z,4.1
2023-01-05T02:04:45.350Z,4.1
2023-01-05T02:09:43.832Z,4.1
2023-01-05T02:14:42.500Z,4.1
2023-01-05T02:19:40.820Z,4
2023-01-05T02:24:40.012Z,4.1
2023-01-05T02:29:38.263Z,4.1
2023-01-05T02:34:36.774Z,4.2
2023-01-05T02:39:35.213Z,4.3
2023-01-05T02:44:33.585Z,4.4
2023-01-05T02:49:31.992Z,4.4
2023-01-05T02:54:30.243Z,4.3
2023-01-05T02:59:28.603Z,4.3
2023-01-05T03:04:26.875Z,4.3
2023-01-05T03:09:25.038Z,4.2
2023-01-05T03:14:23.441Z,4.2
2023-01-05T03:19:21.839Z,4
2023-01-05T03:24:20.966Z,4.1
2023-01-05T03:29:19.139Z,4
2023-01-05T03:34:17.373Z,4.1
2023-01-05T03:39:15.592Z,4.1
2023-01-05T03:44:13.898Z,4.1
2023-01-05T03:49:12.127Z,4.1
2023-01-05T03:54:10.320Z,4.1
2023-01-05T03:59:08.594Z,4
2023-01-05T04:04:06.826Z,3.8
2023-01-05T04:09:04.971Z,3.7
2023-01-05T04:14:03.166Z,3.6
2023-01-05T04:19:01.429Z,3.5
2023-01-05T04:23:59.371Z,3.5
2023-01-05T04:28:57.678Z,3.6
2023-01-05T04:33:56.003Z,3.6
2023-01-05T04:38:54.118Z,3.6
2023-01-05T04:43:52.255Z,3.4
2023-01-05T04:48:50.540Z,3.2
2023-01-05T04:53:48.647Z,3.1
2023-01-05T04:58:46.758Z,3
2023-01-05T05:03:45.161Z,3
2023-01-05T05:08:43.611Z,3.1
2023-01-05T05:13:41.874Z,3
2023-01-05T05:18:40.258Z,3.2
2023-01-05T05:23:38.562Z,3.3
2023-01-05T05:28:36.862Z,3.4
2023-01-05T05:33:35.409Z,3.5
2023-01-05T05:38:33.883Z,3.5
2023-01-05T05:43:32.218Z,3.6
2023-01-05T05:48:30.698Z,3.6
2023-01-05T05:53:29.041Z,3.6
2023-01-05T05:58:27.419Z,3.5
2023-01-05T06:03:25.614Z,3.5
2023-01-05T06:08:24.047Z,3.5
2023-01-05T06:13:22.399Z,3.7
2023-01-05T06:18:20.775Z,3.8
2023-01-05T06:23:19.356Z,4
2023-01-05T06:28:20.309Z,4.3
2023-01-05T06:33:16.562Z,4.6
2023-01-05T06:38:15.143Z,4.7
2023-01-05T06:43:13.678Z,5
2023-01-05T06:48:12.600Z,5.4
2023-01-05T06:53:11.205Z,5.9
2023-01-05T06:58:09.776Z,6.3
2023-01-05T07:03:08.547Z,6.7
2023-01-05T07:08:07.828Z,7.4
2023-01-05T07:13:06.679Z,7.9
2023-01-05T07:18:05.929Z,8.7
2023-01-05T07:23:04.843Z,9.4
2023-01-05T07:27:57.069Z,10.2
2023-01-05T07:32:59.426Z,15.1
2023-01-05T07:38:03.043Z,20.3
2023-01-05T07:43:03.117Z,20.7
2023-01-05T07:48:02.548Z,22.1
2023-01-05T07:53:02.315Z,23
2023-01-05T07:58:00.981Z,23.6
2023-01-05T08:02:59.272Z,23.6
2023-01-05T08:07:58.419Z,24.2
2023-01-05T08:12:57.525Z,25.4
2023-01-05T08:17:57.012Z,25.8
2023-01-05T08:22:55.842Z,25.9
2023-01-05T08:27:53.909Z,26.1
2023-01-05T08:32:52.135Z,26.3
2023-01-05T08:37:50.589Z,26.5
2023-01-05T08:42:49.658Z,27
2023-01-05T08:47:46.534Z,26.6
2023-01-05T08:52:45.055Z,26.9
2023-01-05T08:57:44.217Z,27.6
2023-01-05T09:02:43.886Z,28.5
2023-01-05T09:07:42.540Z,29
2023-01-05T09:12:40.966Z,28.6
2023-01-05T09:17:39.541Z,28.9
2023-01-05T09:22:37.595Z,28.7
2023-01-05T09:27:36.821Z,29.7
2023-01-05T09:32:35.134Z,29.6
2023-01-05T09:37:33.641Z,29.9
2023-01-05T09:42:32.344Z,30.5
2023-01-05T09:47:29.848Z,30
2023-01-05T09:52:29.408Z,29.8
2023-01-05T09:57:26.755Z,30.4
2023-01-05T10:02:24.684Z,30.3
2023-01-05T10:07:21.980Z,29.3
2023-01-05T10:12:21.055Z,29.9
2023-01-05T10:17:43.456Z,29.4
2023-01-05T10:22:16.665Z,28.4
2023-01-05T10:27:28.667Z,26.6
2023-01-05T10:32:12.023Z,27.6
2023-01-05T10:37:10.882Z,27.6
2023-01-05T10:42:08.317Z,26.9
2023-01-05T10:47:06.873Z,27.3
2023-01-05T10:52:05.058Z,27.4
2023-01-05T10:57:03.219Z,27.5
2023-01-05T11:02:01.522Z,26.7
2023-01-05T11:06:59.687Z,26.6
2023-01-05T11:11:56.937Z,25.3
2023-01-05T11:16:54.104Z,24.3
2023-01-05T11:21:54.067Z,23.5
2023-01-05T11:26:49.055Z,22.5
2023-01-05T11:31:46.009Z,20.8
2023-01-05T11:36:43.354Z,19.8
2023-01-05T11:41:41.045Z,19.6
2023-01-05T11:46:39.490Z,19.4
2023-01-05T11:51:37.184Z,18.6
2023-01-05T11:56:34.753Z,17.6
2023-01-05T12:01:32.811Z,17.9
2023-01-05T12:06:31.239Z,17.8
2023-01-05T12:11:29.128Z,16.8
2023-01-05T12:16:27.974Z,17.6
2023-01-05T12:21:26.741Z,18.6
2023-01-05T12:26:25.312Z,18.6
2023-01-05T12:36:22.575Z,19.3
2023-01-05T12:41:21.196Z,20
2023-01-05T12:46:19.594Z,19.8
2023-01-05T12:51:17.459Z,18.7
2023-01-05T12:56:15.541Z,18.4
2023-01-05T13:01:13.162Z,16.6
2023-01-05T13:06:10.079Z,15.2
2023-01-05T13:11:07.132Z,13.9
2023-01-05T13:16:04.781Z,13.1
2023-01-05T13:21:02.471Z,12.2
2023-01-05T13:26:00.430Z,11.6
2023-01-05T13:30:58.457Z,11.1
2023-01-05T13:35:56.692Z,10.8
2023-01-05T13:40:54.726Z,10.6
2023-01-05T13:45:53.933Z,10.4
2023-01-05T13:50:52.706Z,10.2
2023-01-05T13:55:50.678Z,9.9
2023-01-05T14:00:49.070Z,9.8
2023-01-05T14:05:47.310Z,9.7
2023-01-05T14:10:45.554Z,9.6
2023-01-05T14:15:43.927Z,9.3
2023-01-05T14:20:42.232Z,9.3
2023-01-05T14:25:41.229Z,9.2
2023-01-05T14:30:39.469Z,8.9
2023-01-05T14:35:37.865Z,8.8
2023-01-05T14:40:36.012Z,8.7
2023-01-05T14:45:34.901Z,8.6
2023-01-05T14:50:32.973Z,8.4
2023-01-05T14:55:39.068Z,8.1
2023-01-05T15:00:29.548Z,7.7
2023-01-05T15:05:28.058Z,7.4
2023-01-05T15:10:26.562Z,7.2
2023-01-05T15:15:25.002Z,7.2
2023-01-05T15:20:23.637Z,7.2
2023-01-05T15:25:21.761Z,6.8
2023-01-05T15:30:20.908Z,6.2
2023-01-05T15:35:18.171Z,5.8
2023-01-05T15:40:16.129Z,5.2
2023-01-05T15:45:13.803Z,4.6
2023-01-05T15:50:11.773Z,4.2
2023-01-05T15:55:09.970Z,4
2023-01-05T16:00:08.162Z,3.7
2023-01-05T16:05:06.410Z,3.6
2023-01-05T16:10:05.072Z,3.6
2023-01-05T16:15:03.288Z,3.5
2023-01-05T16:20:01.707Z,3.3
2023-01-05T16:25:00.116Z,3.2
2023-01-05T16:29:58.401Z,3
2023-01-05T16:34:56.981Z,3
2023-01-05T16:39:55.435Z,3
2023-01-05T16:44:54.048Z,3
2023-01-05T16:49:57.874Z,2.9
2023-01-05T16:54:50.748Z,2.8
2023-01-05T16:59:48.789Z,2.8
2023-01-05T17:04:47.138Z,2.7
2023-01-05T17:09:45.257Z,2.7
2023-01-05T17:14:43.783Z,2.6
2023-01-05T17:19:41.867Z,2.5
2023-01-05T17:24:40.214Z,2.3
2023-01-05T17:29:38.381Z,2.2
2023-01-05T17:34:37.001Z,2
2023-01-05T17:39:34.663Z,2
2023-01-05T17:44:33.012Z,2.1
2023-01-05T17:49:31.315Z,2
2023-01-05T17:54:29.842Z,1.9
2023-01-05T17:59:28.121Z,1.9
2023-01-05T18:04:27.244Z,2
2023-01-05T18:09:25.088Z,2
2023-01-05T18:14:23.597Z,1.9
2023-01-05T18:19:22.019Z,1.9
2023-01-05T18:24:20.683Z,1.9
2023-01-05T18:29:19.053Z,1.9
2023-01-05T18:34:17.989Z,1.9
2023-01-05T18:39:16.402Z,1.9
2023-01-05T18:44:14.991Z,1.9
2023-01-05T18:49:13.632Z,1.8
2023-01-05T18:54:12.353Z,1.6
2023-01-05T18:59:12.494Z,1.5
2023-01-05T19:04:10.379Z,1.3
2023-01-05T19:09:06.930Z,1.3
2023-01-05T19:14:05.390Z,1.2
2023-01-05T19:19:03.457Z,1.2
2023-01-05T19:24:01.695Z,1.1
2023-01-05T19:29:00.130Z,1
2023-01-05T19:33:58.505Z,1.1
2023-01-05T19:38:56.525Z,1
2023-01-05T19:43:54.871Z,0.9
2023-01-05T19:48:52.761Z,0.6
2023-01-05T19:53:51.544Z,0.5
2023-01-05T19:58:49.753Z,0.4
2023-01-05T20:03:48.384Z,0.3
2023-01-05T20:08:46.710Z,0.3
2023-01-05T20:13:45.101Z,0.2
2023-01-05T20:18:42.841Z,0.1
2023-01-05T20:23:40.876Z,0
2023-01-05T20:28:39.125Z,0.2
2023-01-05T20:33:37.283Z,0.1
2023-01-05T20:38:35.475Z,0.3
2023-01-05T20:43:33.965Z,0.4
2023-01-05T20:48:32.355Z,0.4
2023-01-05T20:53:30.794Z,0.2
2023-01-05T20:58:30.106Z,0.2
2023-01-05T21:03:28.233Z,0.1
2023-01-05T21:08:26.420Z,0
2023-01-05T21:13:30.287Z,-0.1
2023-01-05T21:18:23.236Z,-0.1
2023-01-05T21:23:21.562Z,0
2023-01-05T21:28:19.779Z,-0.1
2023-01-05T21:33:18.138Z,-0.2
2023-01-05T21:38:16.432Z,-0.2
2023-01-05T21:43:14.941Z,-0.2
2023-01-05T21:48:13.161Z,-0.2
2023-01-05T21:53:11.400Z,-0.3
2023-01-05T21:58:09.651Z,-0.3
2023-01-05T22:03:07.900Z,-0.4
2023-01-05T22:08:06.218Z,-0.4
2023-01-05T22:13:04.876Z,-0.6
2023-01-05T22:18:03.196Z,-0.4
2023-01-05T22:23:01.422Z,-0.4
2023-01-05T22:27:59.692Z,-0.5
2023-01-05T22:32:57.885Z,-0.5
2023-01-05T22:37:55.997Z,-0.6
2023-01-05T22:42:54.261Z,-0.6
2023-01-05T22:47:52.516Z,-0.6
2023-01-05T22:52:50.819Z,-0.7
2023-01-05T22:57:48.946Z,-0.8
2023-01-05T23:02:47.108Z,-0.9
2023-01-05T23:07:45.424Z,-0.9
2023-01-05T23:12:43.675Z,-0.9
2023-01-05T23:17:41.970Z,-1
2023-01-05T23:22:40.194Z,-1.1
2023-01-05T23:27:38.391Z,-1.2
2023-01-05T23:32:36.807Z,-1.2
2023-01-05T23:37:34.893Z,-1.3
2023-01-05T23:42:33.289Z,-1.4
2023-01-05T23:47:31.536Z,-1.4
2023-01-05T23:52:29.897Z,-1.5
2023-01-05T23:57:28.420Z,-1.4
